createdAt,value
2023-03-04T00:02:04.403Z,94113.81
2023-03-04T00:04:31.376Z,94108.00
2023-03-04T00:06:58.082Z,94115.84
2023-03-04T00:09:24.695Z,94113.72
2023-03-04T00:11:51.439Z,94108.94
2023-03-04T00:14:18.099Z,94111.50
2023-03-04T00:16:44.746Z,94108.19
2023-03-04T00:19:11.385Z,94105.50
2023-03-04T00:21:37.994Z,94106.50
2023-03-04T00:24:04.775Z,94105.75
2023-03-04T00:26:31.361Z,94102.53
2023-03-04T00:28:58.047Z,94094.75
2023-03-04T00:31:24.856Z,94091.69
2023-03-04T00:33:51.462Z,94100.59
2023-03-04T00:36:18.127Z,94097.41
2023-03-04T00:38:44.744Z,94100.09
2023-03-04T00:41:11.388Z,94098.31
2023-03-04T00:43:38.029Z,94096.78
2023-03-04T00:46:04.890Z,94099.34
2023-03-04T00:48:31.576Z,94092.97
2023-03-04T00:50:58.161Z,94096.88
2023-03-04T00:53:24.858Z,94091.56
2023-03-04T00:55:51.483Z,94099.97
2023-03-04T00:58:18.073Z,94092.97
2023-03-04T01:00:44.694Z,94093.31
2023-03-04T01:03:11.473Z,94088.44
2023-03-04T01:05:38.110Z,94092.75
2023-03-04T01:08:05.504Z,94088.47
2023-03-04T01:10:32.254Z,94095.56
2023-03-04T01:12:58.978Z,94084.66
2023-03-04T01:15:25.613Z,94088.31
2023-03-04T01:17:52.379Z,94092.63
2023-03-04T01:20:19.386Z,94086.22
2023-03-04T01:22:46.021Z,94082.22
2023-03-04T01:25:12.617Z,94074.88
2023-03-04T01:27:39.168Z,94082.47
2023-03-04T01:30:07.010Z,94078.13
2023-03-04T01:32:33.698Z,94077.44
2023-03-04T01:35:00.342Z,94075.44
2023-03-04T01:37:26.969Z,94072.88
2023-03-04T01:39:53.674Z,94069.47
2023-03-04T01:42:22.733Z,94065.56
2023-03-04T01:44:51.241Z,94065.00
2023-03-04T01:47:19.239Z,94072.25
2023-03-04T01:49:51.217Z,94054.03
2023-03-04T01:52:17.821Z,94056.59
2023-03-04T01:54:44.514Z,94056.47
2023-03-04T01:57:23.790Z,94055.47
2023-03-04T02:00:18.008Z,94054.41
2023-03-04T02:02:44.690Z,94062.13
2023-03-04T02:05:11.409Z,94058.69
2023-03-04T02:07:38.336Z,94065.13
2023-03-04T02:10:06.067Z,94058.38
2023-03-04T02:12:32.970Z,94052.28
2023-03-04T02:14:59.615Z,94050.28
2023-03-04T02:17:27.621Z,94044.41
2023-03-04T02:20:00.163Z,94044.75
2023-03-04T02:22:26.850Z,94049.63
2023-03-04T02:25:00.893Z,94042.63
2023-03-04T02:27:27.512Z,94044.06
2023-03-04T02:29:54.129Z,94044.28
2023-03-04T02:32:20.896Z,94038.28
2023-03-04T02:34:49.969Z,94035.41
2023-03-04T02:37:18.665Z,94041.63
2023-03-04T02:39:48.015Z,94041.63
2023-03-04T02:42:15.403Z,94036.19
2023-03-04T02:44:46.555Z,94028.63
2023-03-04T02:47:15.371Z,94023.97
2023-03-04T02:49:42.155Z,94034.94
2023-03-04T02:52:17.555Z,94027.72
2023-03-04T02:54:44.560Z,94031.06
2023-03-04T02:57:12.822Z,94030.03
2023-03-04T02:59:41.055Z,94034.38
2023-03-04T03:02:08.522Z,94037.41
2023-03-04T03:04:37.400Z,94038.59
2023-03-04T03:07:04.713Z,94033.19
2023-03-04T03:09:31.307Z,94040.06
2023-03-04T03:11:58.156Z,94038.94
2023-03-04T03:14:24.791Z,94032.97
2023-03-04T03:16:51.429Z,94030.97
2023-03-04T03:19:18.006Z,94035.13
2023-03-04T03:21:44.630Z,94032.97
2023-03-04T03:24:11.234Z,94030.31
2023-03-04T03:26:39.921Z,94032.66
2023-03-04T03:29:06.602Z,94022.22
2023-03-04T03:31:33.299Z,94033.97
2023-03-04T03:34:00.045Z,94032.19
2023-03-04T03:36:26.739Z,94031.75
2023-03-04T03:38:53.405Z,94028.56
2023-03-04T03:41:20.061Z,94024.09
2023-03-04T03:43:46.659Z,94023.88
2023-03-04T03:46:13.331Z,94026.56
2023-03-04T03:48:39.952Z,94022.28
2023-03-04T03:51:06.570Z,94024.97
2023-03-04T03:53:33.188Z,94020.41
2023-03-04T03:55:59.801Z,94013.06
2023-03-04T03:58:27.077Z,94020.81
2023-03-04T04:00:54.915Z,94017.13
2023-03-04T04:03:22.764Z,94018.91
2023-03-04T04:05:49.489Z,94014.66
2023-03-04T04:08:17.631Z,94009.38
2023-03-04T04:10:44.543Z,94006.69
2023-03-04T04:13:11.482Z,94002.38
2023-03-04T04:15:38.826Z,94005.50
2023-03-04T04:18:07.202Z,94011.19
2023-03-04T04:20:34.315Z,94003.75
2023-03-04T04:23:02.220Z,94005.19
2023-03-04T04:25:29.116Z,94000.63
2023-03-04T04:27:55.912Z,94004.72
2023-03-04T04:30:22.616Z,94012.81
2023-03-04T04:32:49.274Z,94008.41
2023-03-04T04:35:16.131Z,94019.47
2023-03-04T04:37:42.762Z,94008.03
2023-03-04T04:40:10.251Z,94003.28
2023-03-04T04:42:36.998Z,94011.81
2023-03-04T04:45:03.974Z,94009.16
2023-03-04T04:47:30.831Z,94009.75
2023-03-04T04:49:57.460Z,94009.78
2023-03-04T04:52:24.133Z,94004.72
2023-03-04T04:54:50.830Z,94016.00
2023-03-04T04:57:17.521Z,94014.13
2023-03-04T04:59:44.096Z,94015.09
2023-03-04T05:02:10.728Z,94029.75
2023-03-04T05:04:37.364Z,94022.53
2023-03-04T05:07:03.943Z,94020.41
2023-03-04T05:09:30.551Z,94032.84
2023-03-04T05:11:57.156Z,94036.63
2023-03-04T05:14:23.741Z,94043.84
2023-03-04T05:16:52.912Z,94038.25
2023-03-04T05:19:21.288Z,94037.53
2023-03-04T05:21:47.882Z,94044.00
2023-03-04T05:24:14.504Z,94048.16
2023-03-04T05:26:41.184Z,94049.81
2023-03-04T05:29:07.886Z,94053.78
2023-03-04T05:31:34.565Z,94043.44
2023-03-04T05:34:01.164Z,94045.78
2023-03-04T05:36:27.811Z,94045.38
2023-03-04T05:38:54.395Z,94050.03
2023-03-04T05:41:22.787Z,94046.84
2023-03-04T05:43:50.352Z,94046.06
2023-03-04T05:46:19.295Z,94054.47
2023-03-04T05:48:46.157Z,94055.03
2023-03-04T05:51:13.047Z,94058.06
2023-03-04T05:53:41.356Z,94058.03
2023-03-04T05:56:13.853Z,94059.22
2023-03-04T05:58:40.746Z,94062.81
2023-03-04T06:01:07.498Z,94064.66
2023-03-04T06:03:34.826Z,94062.41
2023-03-04T06:06:02.254Z,94070.81
2023-03-04T06:08:29.072Z,94063.69
2023-03-04T06:10:57.034Z,94067.00
2023-03-04T06:13:23.989Z,94058.78
2023-03-04T06:15:58.069Z,94058.56
2023-03-04T06:18:26.074Z,94070.03
2023-03-04T06:21:03.170Z,94074.75
2023-03-04T06:23:31.502Z,94078.47
2023-03-04T06:26:00.138Z,94069.94
2023-03-04T06:28:27.351Z,94077.09
2023-03-04T06:30:55.795Z,94072.69
2023-03-04T06:33:22.821Z,94069.94
2023-03-04T06:35:57.454Z,94078.19
2023-03-04T06:38:26.048Z,94079.66
2023-03-04T06:40:54.784Z,94074.66
2023-03-04T06:43:22.821Z,94086.78
2023-03-04T06:45:49.540Z,94085.94
2023-03-04T06:48:16.144Z,94089.09
2023-03-04T06:50:42.811Z,94095.59
2023-03-04T06:53:09.449Z,94091.28
2023-03-04T06:55:36.111Z,94091.56
2023-03-04T06:58:02.823Z,94092.53
2023-03-04T07:00:29.499Z,94095.69
2023-03-04T07:02:56.079Z,94090.78
2023-03-04T07:05:22.718Z,94090.63
2023-03-04T07:07:49.818Z,94100.88
2023-03-04T07:10:18.333Z,94089.22
2023-03-04T07:12:45.107Z,94092.66
2023-03-04T07:15:11.831Z,94094.31
2023-03-04T07:17:38.413Z,94092.66
2023-03-04T07:20:05.428Z,94099.97
2023-03-04T07:22:32.013Z,94096.97
2023-03-04T07:24:58.598Z,94109.72
2023-03-04T07:27:25.627Z,94106.28
2023-03-04T07:29:52.268Z,94099.84
2023-03-04T07:32:18.928Z,94101.28
2023-03-04T07:34:45.663Z,94098.53
2023-03-04T07:37:12.206Z,94105.13
2023-03-04T07:39:39.016Z,94096.09
2023-03-04T07:42:05.666Z,94104.03
2023-03-04T07:44:32.797Z,94108.28
2023-03-04T07:46:59.413Z,94103.63
2023-03-04T07:49:26.025Z,94098.31
2023-03-04T07:51:52.754Z,94098.69
2023-03-04T07:54:20.236Z,94095.19
2023-03-04T07:56:46.955Z,94093.19
2023-03-04T07:59:13.553Z,94087.63
2023-03-04T08:01:40.211Z,94094.41
2023-03-04T08:04:07.915Z,94093.09
2023-03-04T08:06:35.112Z,94085.34
2023-03-04T08:09:06.976Z,94087.41
2023-03-04T08:11:35.065Z,94085.03
2023-03-04T08:14:01.976Z,94086.34
2023-03-04T08:16:28.950Z,94081.78
2023-03-04T08:18:58.155Z,94091.72
2023-03-04T08:21:26.820Z,94092.06
2023-03-04T08:23:54.414Z,94088.88
2023-03-04T08:26:31.682Z,94080.81
2023-03-04T08:28:58.486Z,94086.44
2023-03-04T08:31:25.202Z,94085.75
2023-03-04T08:33:53.049Z,94085.03
2023-03-04T08:36:20.711Z,94079.22
2023-03-04T08:38:47.371Z,94077.09
2023-03-04T08:41:15.542Z,94086.91
2023-03-04T08:43:42.361Z,94078.53
2023-03-04T08:46:09.074Z,94078.91
2023-03-04T08:48:37.380Z,94078.66
2023-03-04T08:51:11.218Z,94076.47
2023-03-04T08:53:39.194Z,94073.59
2023-03-04T08:56:07.267Z,94075.56
2023-03-04T08:58:34.030Z,94071.44
2023-03-04T09:01:02.263Z,94074.47
2023-03-04T09:03:29.612Z,94070.34
2023-03-04T09:05:56.666Z,94072.91
2023-03-04T09:08:23.686Z,94067.75
2023-03-04T09:10:54.224Z,94064.13
2023-03-04T09:13:25.822Z,94069.97
2023-03-04T09:15:53.722Z,94063.78
2023-03-04T09:18:23.420Z,94061.28
2023-03-04T09:20:50.504Z,94062.34
2023-03-04T09:23:18.424Z,94058.47
2023-03-04T09:25:47.504Z,94063.22
2023-03-04T09:28:14.754Z,94054.84
2023-03-04T09:30:41.464Z,94053.53
2023-03-04T09:33:08.093Z,94056.69
2023-03-04T09:35:34.706Z,94049.00
2023-03-04T09:38:02.249Z,94052.63
2023-03-04T09:40:33.736Z,94051.72
2023-03-04T09:43:06.362Z,94044.00
2023-03-04T09:45:47.097Z,94047.03
2023-03-04T09:48:17.553Z,94051.06
2023-03-04T09:51:17.800Z,94042.63
2023-03-04T09:54:19.582Z,94040.06
2023-03-04T09:56:46.290Z,94036.81
2023-03-04T09:59:18.946Z,94037.97
2023-03-04T10:01:50.390Z,94031.53
2023-03-04T10:04:17.010Z,94030.59
2023-03-04T10:06:47.105Z,94032.06
2023-03-04T10:09:19.865Z,94024.22
2023-03-04T10:12:02.242Z,94024.72
2023-03-04T10:14:47.570Z,94020.69
2023-03-04T10:17:23.933Z,94010.63
2023-03-04T10:20:17.953Z,94016.47
2023-03-04T10:22:49.692Z,94014.28
2023-03-04T10:25:18.195Z,94006.72
2023-03-04T10:27:59.958Z,94010.78
2023-03-04T10:30:59.427Z,94008.16
2023-03-04T10:33:30.592Z,93993.63
2023-03-04T10:36:18.674Z,93994.06
2023-03-04T10:38:45.686Z,93989.09
2023-03-04T10:41:16.892Z,93987.50
2023-03-04T10:43:46.717Z,93987.81
2023-03-04T10:46:13.385Z,93984.88
2023-03-04T10:48:43.510Z,93981.50
2023-03-04T10:51:30.076Z,93981.25
2023-03-04T10:54:05.387Z,93976.25
2023-03-04T10:56:37.977Z,93967.00
2023-03-04T10:59:44.423Z,93966.72
2023-03-04T11:02:16.181Z,93965.59
2023-03-04T11:04:43.243Z,93958.78
2023-03-04T11:07:11.117Z,93957.91
2023-03-04T11:09:40.232Z,93950.81
2023-03-04T11:12:16.356Z,93946.13
2023-03-04T11:14:49.259Z,93947.22
2023-03-04T11:17:25.787Z,93952.13
2023-03-04T11:20:15.623Z,93938.94
2023-03-04T11:22:45.652Z,93933.09
2023-03-04T11:25:32.809Z,93932.53
2023-03-04T11:28:05.332Z,93923.06
2023-03-04T11:30:35.068Z,93912.66
2023-03-04T11:33:41.790Z,93919.59
2023-03-04T11:36:23.164Z,93910.69
2023-03-04T11:38:51.822Z,93912.03
2023-03-04T11:41:32.125Z,93906.75
2023-03-04T11:44:05.574Z,93905.66
2023-03-04T11:46:49.580Z,93904.38
2023-03-04T11:49:46.196Z,93899.56
2023-03-04T11:52:37.044Z,93901.91
2023-03-04T11:55:27.173Z,93901.44
2023-03-04T11:58:32.667Z,93893.66
2023-03-04T12:01:19.522Z,93893.53
2023-03-04T12:04:04.646Z,93889.81
2023-03-04T12:06:50.497Z,93892.59
2023-03-04T12:09:53.762Z,93884.00
2023-03-04T12:12:42.333Z,93886.13
2023-03-04T12:15:24.063Z,93880.41
2023-03-04T12:18:09.894Z,93876.31
2023-03-04T12:21:01.288Z,93875.19
2023-03-04T12:23:42.895Z,93874.50
2023-03-04T12:26:24.434Z,93869.97
2023-03-04T12:28:54.111Z,93863.75
2023-03-04T12:31:41.459Z,93864.41
2023-03-04T12:34:20.601Z,93866.91
2023-03-04T12:36:47.124Z,93855.34
2023-03-04T12:39:13.620Z,93859.97
2023-03-04T12:42:05.191Z,93855.44
2023-03-04T12:44:37.828Z,93851.84
2023-03-04T12:47:14.431Z,93853.72
2023-03-04T12:49:41.076Z,93847.91
2023-03-04T12:52:22.444Z,93840.94
2023-03-04T12:55:03.860Z,93844.84
2023-03-04T12:57:31.887Z,93839.03
2023-03-04T13:00:24.775Z,93834.97
2023-03-04T13:02:57.020Z,93825.25
2023-03-04T13:06:08.517Z,93821.78
2023-03-04T13:09:07.499Z,93829.13
2023-03-04T13:11:44.116Z,93814.28
2023-03-04T13:14:18.299Z,93811.69
2023-03-04T13:16:54.100Z,93805.34
2023-03-04T13:20:11.759Z,93807.97
2023-03-04T13:22:56.770Z,93802.03
2023-03-04T13:25:31.207Z,93803.81
2023-03-04T13:28:36.295Z,93808.75
2023-03-04T13:31:23.786Z,93803.53
2023-03-04T13:33:57.076Z,93804.44
2023-03-04T13:36:30.979Z,93804.75
2023-03-04T13:39:20.641Z,93807.78
2023-03-04T13:41:56.749Z,93805.00
2023-03-04T13:44:45.440Z,93801.03
2023-03-04T13:47:32.961Z,93796.41
2023-03-04T13:50:22.474Z,93796.91
2023-03-04T13:52:49.323Z,93787.19
2023-03-04T13:55:30.774Z,93786.81
2023-03-04T13:57:57.507Z,93788.63
2023-03-04T14:00:25.521Z,93779.97
2023-03-04T14:02:52.094Z,93783.47
2023-03-04T14:05:18.809Z,93770.06
2023-03-04T14:07:45.491Z,93769.09
2023-03-04T14:10:12.091Z,93770.38
2023-03-04T14:12:47.402Z,93768.97
2023-03-04T14:15:13.942Z,93769.91
2023-03-04T14:17:45.840Z,93767.84
2023-03-04T14:20:25.831Z,93770.84
2023-03-04T14:22:53.258Z,93765.47
2023-03-04T14:25:21.845Z,93762.16
2023-03-04T14:27:48.475Z,93760.00
2023-03-04T14:30:41.715Z,93753.06
2023-03-04T14:33:32.364Z,93755.63
2023-03-04T14:36:02.314Z,93751.59
2023-03-04T14:38:31.192Z,93749.88
2023-03-04T14:41:17.085Z,93749.94
2023-03-04T14:44:08.716Z,93752.59
2023-03-04T14:46:41.509Z,93754.16
2023-03-04T14:49:13.589Z,93750.19
2023-03-04T14:51:46.080Z,93740.19
2023-03-04T14:54:33.694Z,93742.25
2023-03-04T14:57:15.030Z,93734.06
2023-03-04T14:59:41.623Z,93735.16
2023-03-04T15:02:19.985Z,93732.03
2023-03-04T15:04:48.446Z,93733.88
2023-03-04T15:07:20.044Z,93736.66
2023-03-04T15:09:54.636Z,93729.63
2023-03-04T15:12:28.920Z,93719.66
2023-03-04T15:14:58.737Z,93725.31
2023-03-04T15:17:40.151Z,93714.84
2023-03-04T15:20:29.734Z,93716.34
2023-03-04T15:23:07.375Z,93706.56
2023-03-04T15:25:37.142Z,93716.00
2023-03-04T15:28:04.575Z,93706.78
2023-03-04T15:30:33.869Z,93701.88
2023-03-04T15:33:02.273Z,93699.28
2023-03-04T15:35:32.362Z,93698.28
2023-03-04T15:38:02.216Z,93706.75
2023-03-04T15:40:31.597Z,93694.16
2023-03-04T15:43:14.485Z,93697.09
2023-03-04T15:45:43.911Z,93696.81
2023-03-04T15:48:17.521Z,93693.66
2023-03-04T15:50:51.633Z,93692.22
2023-03-04T15:53:28.692Z,93692.28
2023-03-04T15:55:55.498Z,93681.91
2023-03-04T15:58:22.483Z,93684.59
2023-03-04T16:00:49.110Z,93684.44
2023-03-04T16:03:18.044Z,93686.03
2023-03-04T16:05:47.574Z,93689.75
2023-03-04T16:08:17.143Z,93693.97
2023-03-04T16:10:44.886Z,93686.91
2023-03-04T16:13:17.334Z,93690.31
2023-03-04T16:15:44.636Z,93694.16
2023-03-04T16:18:12.996Z,93694.59
2023-03-04T16:20:41.900Z,93697.28
2023-03-04T16:23:15.039Z,93688.00
2023-03-04T16:25:45.883Z,93694.22
2023-03-04T16:28:13.335Z,93694.22
2023-03-04T16:30:40.907Z,93696.50
2023-03-04T16:33:07.954Z,93697.41
2023-03-04T16:35:36.764Z,93688.66
2023-03-04T16:38:04.616Z,93692.56
2023-03-04T16:40:31.624Z,93707.63
2023-03-04T16:42:58.276Z,93702.38
2023-03-04T16:45:27.107Z,93701.69
2023-03-04T16:47:54.217Z,93699.72
2023-03-04T16:50:27.074Z,93701.00
2023-03-04T16:52:55.470Z,93704.56
2023-03-04T16:55:26.649Z,93707.16
2023-03-04T16:57:55.742Z,93706.63
2023-03-04T17:00:27.316Z,93699.06
2023-03-04T17:03:01.299Z,93697.13
2023-03-04T17:05:31.816Z,93698.50
2023-03-04T17:07:58.594Z,93696.66
2023-03-04T17:10:25.351Z,93700.88
2023-03-04T17:12:52.460Z,93702.38
2023-03-04T17:15:19.202Z,93705.19
2023-03-04T17:17:46.261Z,93705.31
2023-03-04T17:20:18.401Z,93709.06
2023-03-04T17:22:45.922Z,93699.56
2023-03-04T17:25:13.266Z,93703.34
2023-03-04T17:27:40.216Z,93704.66
2023-03-04T17:30:11.737Z,93707.34
2023-03-04T17:32:39.632Z,93700.63
2023-03-04T17:35:10.624Z,93710.22
2023-03-04T17:37:37.904Z,93713.34
2023-03-04T17:40:14.087Z,93708.31
2023-03-04T17:42:44.287Z,93717.72
2023-03-04T17:45:11.438Z,93720.25
2023-03-04T17:47:38.218Z,93714.97
2023-03-04T17:50:06.845Z,93707.63
2023-03-04T17:52:33.957Z,93715.69
2023-03-04T17:55:00.556Z,93707.78
2023-03-04T17:57:27.353Z,93724.31
2023-03-04T17:59:54.570Z,93720.66
2023-03-04T18:02:21.182Z,93716.97
2023-03-04T18:04:50.192Z,93714.81
2023-03-04T18:07:16.864Z,93709.47
2023-03-04T18:09:44.508Z,93711.03
2023-03-04T18:12:11.134Z,93711.56
2023-03-04T18:14:37.768Z,93712.16
2023-03-04T18:17:04.375Z,93710.31
2023-03-04T18:19:31.164Z,93717.03
2023-03-04T18:21:57.775Z,93710.59
2023-03-04T18:24:24.321Z,93710.41
2023-03-04T18:26:51.263Z,93707.69
2023-03-04T18:29:17.859Z,93711.03
2023-03-04T18:31:44.611Z,93711.63
2023-03-04T18:34:12.594Z,93713.59
2023-03-04T18:36:39.346Z,93707.41
2023-03-04T18:39:07.530Z,93715.66
2023-03-04T18:41:34.296Z,93710.13
2023-03-04T18:44:01.017Z,93702.13
2023-03-04T18:46:40.457Z,93703.56
2023-03-04T18:49:11.229Z,93706.13
2023-03-04T18:51:37.858Z,93711.31
2023-03-04T18:54:04.718Z,93708.41
2023-03-04T18:56:38.471Z,93706.41
2023-03-04T18:59:08.820Z,93710.78
2023-03-04T19:01:35.561Z,93708.91
2023-03-04T19:04:04.773Z,93706.50
2023-03-04T19:06:33.684Z,93712.63
2023-03-04T19:09:04.629Z,93713.50
2023-03-04T19:11:31.695Z,93718.31
2023-03-04T19:13:58.388Z,93725.50
2023-03-04T19:16:25.521Z,93722.22
2023-03-04T19:18:53.575Z,93717.09
2023-03-04T19:21:20.268Z,93717.66
2023-03-04T19:23:46.997Z,93717.22
2023-03-04T19:26:15.377Z,93717.22
2023-03-04T19:28:42.564Z,93716.50
2023-03-04T19:31:10.406Z,93726.81
2023-03-04T19:33:39.260Z,93729.22
2023-03-04T19:36:07.442Z,93724.25
2023-03-04T19:38:34.486Z,93724.72
2023-03-04T19:41:09.507Z,93730.16
2023-03-04T19:43:37.141Z,93726.25
2023-03-04T19:46:03.913Z,93734.66
2023-03-04T19:48:30.700Z,93737.56
2023-03-04T19:50:57.352Z,93734.38
2023-03-04T19:53:24.013Z,93737.25
2023-03-04T19:55:50.702Z,93730.09
2023-03-04T19:58:17.756Z,93734.81
2023-03-04T20:00:45.241Z,93733.59
2023-03-04T20:03:12.778Z,93726.16
2023-03-04T20:05:39.978Z,93731.50
2023-03-04T20:08:06.766Z,93729.00
2023-03-04T20:10:37.747Z,93736.75
2023-03-04T20:13:05.846Z,93729.44
2023-03-04T20:15:35.020Z,93723.69
2023-03-04T20:18:02.257Z,93731.97
2023-03-04T20:20:29.412Z,93728.94
2023-03-04T20:22:57.031Z,93722.22
2023-03-04T20:25:24.650Z,93723.06
2023-03-04T20:27:51.553Z,93722.88
2023-03-04T20:30:18.490Z,93725.81
2023-03-04T20:32:45.518Z,93722.41
2023-03-04T20:35:15.090Z,93733.09
2023-03-04T20:37:42.397Z,93731.69
2023-03-04T20:40:13.032Z,93741.00
2023-03-04T20:42:39.703Z,93732.47
2023-03-04T20:45:07.082Z,93732.53
2023-03-04T20:47:34.135Z,93730.53
2023-03-04T20:50:00.780Z,93730.47
2023-03-04T20:52:27.394Z,93730.03
2023-03-04T20:54:54.029Z,93726.31
2023-03-04T20:57:21.375Z,93725.25
2023-03-04T20:59:47.963Z,93722.66
2023-03-04T21:02:17.286Z,93726.16
2023-03-04T21:04:44.018Z,93726.03
2023-03-04T21:07:10.787Z,93717.50
2023-03-04T21:09:37.388Z,93720.69
2023-03-04T21:12:04.292Z,93715.47
2023-03-04T21:14:32.198Z,93720.53
2023-03-04T21:17:02.311Z,93710.31
2023-03-04T21:19:35.753Z,93713.16
2023-03-04T21:22:03.882Z,93716.94
2023-03-04T21:24:33.005Z,93707.22
2023-03-04T21:27:02.280Z,93719.34
2023-03-04T21:29:29.204Z,93713.31
2023-03-04T21:32:07.148Z,93710.50
2023-03-04T21:34:48.410Z,93710.28
2023-03-04T21:37:15.124Z,93705.47
2023-03-04T21:39:41.739Z,93703.19
2023-03-04T21:42:08.419Z,93697.44
2023-03-04T21:44:48.551Z,93698.06
2023-03-04T21:47:15.679Z,93702.47
2023-03-04T21:49:42.301Z,93696.97
2023-03-04T21:52:09.003Z,93691.31
2023-03-04T21:54:35.652Z,93692.84
2023-03-04T21:57:02.310Z,93685.25
2023-03-04T21:59:28.881Z,93690.75
2023-03-04T22:01:55.531Z,93690.63
2023-03-04T22:04:22.160Z,93685.75
2023-03-04T22:06:48.809Z,93682.06
2023-03-04T22:09:15.815Z,93683.47
2023-03-04T22:11:42.607Z,93688.88
2023-03-04T22:14:10.974Z,93688.09
2023-03-04T22:16:48.866Z,93689.13
2023-03-04T22:19:19.682Z,93685.75
2023-03-04T22:21:46.316Z,93688.16
2023-03-04T22:24:12.938Z,93680.56
2023-03-04T22:26:39.580Z,93684.38
2023-03-04T22:29:06.298Z,93685.41
2023-03-04T22:31:35.487Z,93677.22
2023-03-04T22:34:08.250Z,93677.88
2023-03-04T22:36:38.083Z,93675.88
2023-03-04T22:39:07.321Z,93674.19
2023-03-04T22:41:34.487Z,93669.38
2023-03-04T22:44:02.248Z,93669.56
2023-03-04T22:46:31.709Z,93671.19
2023-03-04T22:49:06.851Z,93670.56
2023-03-04T22:51:33.522Z,93671.84
2023-03-04T22:54:00.194Z,93672.72
2023-03-04T22:56:27.147Z,93671.41
2023-03-04T22:58:53.831Z,93669.47
2023-03-04T23:01:20.956Z,93672.31
2023-03-04T23:03:49.215Z,93663.28
2023-03-04T23:06:27.798Z,93661.44
2023-03-04T23:08:54.560Z,93669.31
2023-03-04T23:11:25.447Z,93656.97
2023-03-04T23:13:53.194Z,93654.16
2023-03-04T23:16:21.018Z,93658.84
2023-03-04T23:18:49.600Z,93652.13
2023-03-04T23:21:22.399Z,93657.28
2023-03-04T23:23:49.488Z,93655.81
2023-03-04T23:26:18.863Z,93653.44
2023-03-04T23:28:46.069Z,93651.38
2023-03-04T23:31:16.532Z,93652.09
2023-03-04T23:33:44.775Z,93644.63
2023-03-04T23:36:14.993Z,93648.25
2023-03-04T23:38:43.570Z,93655.72
2023-03-04T23:41:19.366Z,93644.72
2023-03-04T23:43:46.556Z,93640.03
2023-03-04T23:46:13.975Z,93647.34
2023-03-04T23:48:43.314Z,93640.97
2023-03-04T23:51:10.652Z,93642.44
2023-03-04T23:53:39.137Z,93651.13
2023-03-04T23:56:17.690Z,93645.91
2023-03-04T23:58:44.961Z,93648.47
